createdAt,value
2022-12-14T00:01:53.108Z,84.93
2022-12-14T00:05:20.673Z,85.14
2022-12-14T00:08:48.333Z,85.15
2022-12-14T00:12:15.233Z,84.96
2022-12-14T00:15:42.415Z,85.12
2022-12-14T00:19:11.184Z,85.44
2022-12-14T00:22:38.195Z,85.39
2022-12-14T00:26:13.142Z,85.18
2022-12-14T00:29:39.848Z,85.21
2022-12-14T00:33:07.014Z,85.22
2022-12-14T00:36:36.570Z,85.20
2022-12-14T00:40:03.677Z,85.05
2022-12-14T00:43:30.857Z,84.94
2022-12-14T00:46:57.827Z,85.34
2022-12-14T00:50:24.578Z,85.41
2022-12-14T00:53:51.309Z,85.34
2022-12-14T00:57:18.190Z,85.10
2022-12-14T01:00:45.307Z,85.07
2022-12-14T01:04:22.712Z,85.27
2022-12-14T01:17:01.175Z,85.07
2022-12-14T01:20:27.803Z,85.20
2022-12-14T01:23:56.813Z,85.34
2022-12-14T01:27:22.105Z,85.20
2022-12-14T01:30:49.634Z,84.92
2022-12-14T01:34:17.329Z,84.97
2022-12-14T01:37:44.043Z,84.75
2022-12-14T01:41:19.073Z,84.91
2022-12-14T01:45:17.599Z,85.21
2022-12-14T01:48:44.667Z,85.13
2022-12-14T01:52:16.214Z,85.24
2022-12-14T01:55:48.835Z,85.37
2022-12-14T01:59:20.009Z,85.19
2022-12-14T02:02:54.241Z,85.14
2022-12-14T02:06:25.951Z,85.40
2022-12-14T02:09:55.779Z,85.41
2022-12-14T02:13:27.138Z,85.68
2022-12-14T02:16:57.329Z,85.60
2022-12-14T02:20:28.615Z,85.78
2022-12-14T02:24:28.431Z,85.63
2022-12-14T02:28:12.869Z,85.40
2022-12-14T02:31:51.563Z,85.47
2022-12-14T02:35:26.097Z,85.67
2022-12-14T02:39:05.244Z,85.53
2022-12-14T02:42:36.572Z,85.55
2022-12-14T02:46:15.415Z,85.70
2022-12-14T02:49:49.119Z,85.61
2022-12-14T02:53:21.649Z,85.59
2022-12-14T02:56:53.827Z,85.65
2022-12-14T03:00:21.546Z,85.52
2022-12-14T03:03:48.573Z,85.56
2022-12-14T03:07:36.679Z,85.50
2022-12-14T03:11:06.059Z,85.74
2022-12-14T03:14:37.836Z,85.46
2022-12-14T03:18:08.878Z,85.61
2022-12-14T03:21:38.061Z,85.61
2022-12-14T03:25:11.414Z,85.61
2022-12-14T03:28:45.683Z,85.29
2022-12-14T03:32:16.480Z,85.43
2022-12-14T22:05:14.749Z,83.18
2022-12-14T22:12:56.195Z,83.18
2022-12-14T22:16:22.962Z,83.05
2022-12-14T22:19:51.087Z,83.28
2022-12-14T22:23:17.982Z,83.23
2022-12-14T22:26:45.834Z,83.19
2022-12-14T22:30:15.990Z,83.27
2022-12-14T22:33:43.216Z,83.44
2022-12-14T22:37:09.943Z,83.30
2022-12-14T22:40:36.765Z,83.28
2022-12-14T22:44:04.032Z,83.33
2022-12-14T22:47:30.723Z,83.28
2022-12-14T22:51:00.688Z,83.72
2022-12-14T22:54:29.945Z,83.46
2022-12-14T22:57:57.372Z,83.27
2022-12-14T23:01:24.905Z,83.42
2022-12-14T23:04:51.841Z,83.64
2022-12-14T23:08:18.702Z,83.39
2022-12-14T23:12:03.036Z,83.70
2022-12-14T23:15:47.409Z,83.81
2022-12-14T23:19:31.768Z,83.86
2022-12-14T23:23:16.158Z,83.72
2022-12-14T23:27:05.695Z,84.00
2022-12-14T23:30:53.158Z,83.93
2022-12-14T23:34:38.215Z,84.11
2022-12-14T23:38:25.775Z,84.29
2022-12-14T23:42:12.541Z,84.05
2022-12-14T23:45:57.122Z,84.22
2022-12-14T23:49:41.541Z,84.23
2022-12-14T23:53:26.964Z,84.14
2022-12-14T23:57:11.319Z,84.37
